Kezdőlap
METAR-TAF:

METAR-TAF

Repülőterek :

Meiringen, Svájc

földrajzi szélesség: 46-44-25N, földrajzi hosszúság: 8-06-36E, magasság: 577 m

Jelenlegi meteorológiai megfigyelések

A jelentés 40 perccel ezelõtt készült, 15:20 UTC
Keleti szél 3 kt
Hőmérséklet -3°C
Páratartalom 93%
Légköri nyomás 1019 hPa
Látótávolság 10 km, vagy több
felhőtlen 1500 m magasságban, és nincs gomolyfelhõ

METAR: LSMM 061520Z 09003KT CAVOK M03/M04 Q1019 RMK BLU

Idő: 17:00 (16:00 UTC)


TAF: hiányzik

Meteorológiai megfigyelések és előrejelzések több, mint 4000 repülőtéren (METAR és TAF jelentéseket).

A térképen piros és sárga pontok jelzik az elérhető meteorológiai állomásokat.

Mozgassa az egeret a pont fölött, hogy megjelenjen az állomás neve.

Azután kattintson az időjárási megfigyelések és előrejelzések megtekintéséhez.

A térkép megváltoztatása: kattintson a fekete keresztel jelölt zöld gombra ráközelítéshez, a vonallal jelölt zöld gombra távolításhoz, vagy a zöld nyilakra a szomszédos térképek eléréséhez.


METAR-TAF: